Time;durP1;ratioP1;P1;durP2;ratioP2;P2;SDS_P1;SDS_P2;PMS_P1;PMS_P2;Temp;Humidity;BMP_temperature;BMP_pressure;BME280_temperature;BME280_humidity;BME280_pressure;Samples;Min_cycle;Max_cycle;Signal;HPM_P1;HPM_P2
2022/06/26 00:02:01;;;;;;;4.40;3.38;;;;;;;18.27;100.00;100661.38;5036245;28;20440;-84
2022/06/26 00:04:29;;;;;;;4.25;3.28;;;;;;;18.24;100.00;100665.63;5033840;28;20425;-83
2022/06/26 00:07:04;;;;;;;4.63;3.40;;;;;;;18.19;100.00;100663.06;5033517;28;20056;-83
2022/06/26 00:09:38;;;;;;;3.67;3.10;;;;;;;18.17;100.00;100663.41;5027903;28;20060;-82
2022/06/26 00:12:11;;;;;;;3.90;3.03;;;;;;;18.16;100.00;100661.78;5028460;28;20060;-82
2022/06/26 00:14:39;;;;;;;4.07;3.10;;;;;;;18.09;100.00;100667.00;5037705;28;20045;-83
2022/06/26 00:17:12;;;;;;;3.72;2.92;;;;;;;17.87;100.00;100650.69;5040056;28;20048;-83
2022/06/26 00:19:46;;;;;;;5.72;3.20;;;;;;;18.04;100.00;100685.66;5031020;28;20049;-83
2022/06/26 00:22:17;;;;;;;4.50;3.17;;;;;;;18.05;100.00;100687.25;5030870;28;20064;-83
2022/06/26 00:24:50;;;;;;;3.35;2.60;;;;;;;18.06;100.00;100686.13;5028862;28;20486;-83
2022/06/26 00:27:19;;;;;;;4.25;3.30;;;;;;;17.92;100.00;100678.09;5031177;28;20057;-82
2022/06/26 00:29:47;;;;;;;3.85;2.95;;;;;;;17.96;100.00;100681.78;5028790;28;20490;-83
2022/06/26 00:32:16;;;;;;;3.80;3.08;;;;;;;17.90;100.00;100678.38;5048107;28;20054;-83
2022/06/26 00:34:44;;;;;;;3.45;2.83;;;;;;;17.91;100.00;100680.03;5031475;28;20052;-83
2022/06/26 00:37:12;;;;;;;3.88;3.17;;;;;;;17.89;100.00;100671.25;5034384;28;20604;-83
2022/06/26 00:39:42;;;;;;;3.63;2.83;;;;;;;17.93;100.00;100669.50;5029301;28;20060;-85
2022/06/26 00:42:10;;;;;;;3.45;3.00;;;;;;;17.88;100.00;100661.38;5032630;28;20053;-83
2022/06/26 00:44:43;;;;;;;3.80;3.15;;;;;;;17.84;100.00;100657.66;5026836;28;20049;-83
2022/06/26 00:47:16;;;;;;;3.55;3.00;;;;;;;17.92;100.00;100670.63;5034126;28;20050;-84
2022/06/26 00:49:45;;;;;;;3.58;3.00;;;;;;;17.95;100.00;100664.47;5041018;28;20045;-82
2022/06/26 00:52:14;;;;;;;3.97;3.25;;;;;;;17.95;100.00;100663.66;5036856;28;20061;-82
2022/06/26 00:54:49;;;;;;;3.47;2.80;;;;;;;17.98;100.00;100668.50;5046817;28;20473;-83
2022/06/26 00:57:18;;;;;;;4.13;3.30;;;;;;;18.00;100.00;100645.00;5038941;28;20049;-82
2022/06/26 00:59:51;;;;;;;4.63;3.63;;;;;;;18.00;100.00;100644.19;5036405;28;20065;-82
2022/06/26 01:02:19;;;;;;;4.28;3.55;;;;;;;17.90;100.00;100656.38;5041275;28;20045;-81
2022/06/26 01:04:48;;;;;;;4.03;3.28;;;;;;;17.81;100.00;100658.34;5031899;28;20045;-80
2022/06/26 01:07:16;;;;;;;4.30;3.30;;;;;;;17.73;100.00;100654.50;5039974;28;20144;-81
2022/06/26 01:09:51;;;;;;;3.50;3.00;;;;;;;17.68;100.00;100660.16;5034563;28;20045;-81
2022/06/26 01:12:24;;;;;;;3.15;2.85;;;;;;;17.65;100.00;100655.31;5037997;28;20053;-82
2022/06/26 01:15:01;;;;;;;3.37;3.00;;;;;;;17.63;100.00;100655.63;5029440;28;20528;-81
2022/06/26 01:17:34;;;;;;;3.78;3.15;;;;;;;17.68;100.00;100666.47;5037594;28;20417;-81
2022/06/26 01:20:05;;;;;;;3.72;3.20;;;;;;;17.75;100.00;100654.97;5026601;28;20046;-81
2022/06/26 01:22:40;;;;;;;4.03;3.20;;;;;;;17.76;100.00;100656.59;5035213;28;20436;-81
2022/06/26 01:25:09;;;;;;;5.28;3.58;;;;;;;17.71;100.00;100654.00;5033757;28;20932;-82
2022/06/26 01:27:42;;;;;;;4.95;3.40;;;;;;;17.71;100.00;100666.97;5034449;28;20417;-81
2022/06/26 01:30:17;;;;;;;4.55;3.40;;;;;;;17.73;100.00;100654.50;5037079;28;20430;-80
2022/06/26 01:32:50;;;;;;;5.38;3.67;;;;;;;17.76;100.00;100662.09;5036832;28;20427;-81
2022/06/26 01:35:19;;;;;;;5.82;4.10;;;;;;;17.74;100.00;100647.81;5033385;28;20447;-81
2022/06/26 01:38:09;;;;;;;6.95;4.60;;;;;;;17.80;100.00;100652.03;5032760;28;21249;-81
2022/06/26 01:40:37;;;;;;;7.05;4.45;;;;;;;17.83;100.00;100656.88;5036759;28;20432;-82
2022/06/26 01:43:14;;;;;;;6.28;4.40;;;;;;;17.81;100.00;100650.88;5040715;28;20423;-81
2022/06/26 01:45:43;;;;;;;6.53;4.68;;;;;;;17.85;100.00;100648.28;5034778;28;20438;-82
2022/06/26 01:48:17;;;;;;;7.32;5.00;;;;;;;17.86;100.00;100652.66;5036317;28;20415;-82
2022/06/26 01:50:46;;;;;;;7.88;5.18;;;;;;;17.84;100.00;100649.41;5042533;28;20426;-82
2022/06/26 01:53:21;;;;;;;6.97;5.18;;;;;;;17.84;100.00;100653.00;5053263;28;20916;-81
2022/06/26 01:55:55;;;;;;;7.50;5.37;;;;;;;17.77;100.00;100647.19;5033508;28;20438;-81
2022/06/26 01:58:34;;;;;;;7.78;5.38;;;;;;;17.82;100.00;100648.94;5049944;28;20899;-82
2022/06/26 02:01:05;;;;;;;6.70;5.20;;;;;;;17.83;100.00;100653.31;5031226;28;20997;-82
2022/06/26 02:03:33;;;;;;;7.38;5.40;;;;;;;17.81;100.00;100650.06;5036430;28;20425;-81
2022/06/26 02:06:10;;;;;;;7.40;5.57;;;;;;;17.80;100.00;100651.22;5031135;28;20465;-81
2022/06/26 02:08:39;;;;;;;6.72;4.80;;;;;;;17.86;100.00;100649.91;5034706;28;20439;-81
2022/06/26 02:14:03;;;;;;;7.00;5.25;;;;;;;17.90;100.00;100648.09;5031699;28;20416;-81
2022/06/26 02:16:46;;;;;;;7.30;5.30;;;;;;;17.93;100.00;100647.47;5038179;28;20424;-81
2022/06/26 02:19:15;;;;;;;7.00;5.32;;;;;;;17.85;100.00;100648.28;5045744;28;20420;-80
2022/06/26 02:21:50;;;;;;;8.68;5.53;;;;;;;17.85;100.00;100653.78;5025145;28;20791;-81
2022/06/26 02:24:19;;;;;;;6.82;5.10;;;;;;;17.86;100.00;100649.91;5028394;28;20426;-82
2022/06/26 02:26:54;;;;;;;7.93;5.80;;;;;;;17.89;100.00;100653.94;5032585;28;20434;-81
2022/06/26 02:29:27;;;;;;;8.20;6.03;;;;;;;17.88;100.00;100649.56;5037111;28;20442;-81
2022/06/26 02:32:01;;;;;;;9.02;5.72;;;;;;;17.91;100.00;100647.00;5034040;28;20411;-82
2022/06/26 02:34:35;;;;;;;7.97;6.03;;;;;;;17.93;100.00;100658.47;5037633;28;20433;-81
2022/06/26 02:37:10;;;;;;;8.17;5.70;;;;;;;17.97;100.00;100667.69;5032805;28;20423;-82
2022/06/26 02:39:47;;;;;;;8.43;5.90;;;;;;;17.98;100.00;100658.31;5033119;28;20433;-81
2022/06/26 02:42:15;;;;;;;7.70;5.72;;;;;;;18.00;100.00;100669.78;5031645;28;20418;-81
2022/06/26 02:44:50;;;;;;;7.93;5.90;;;;;;;18.04;100.00;100669.94;5030535;28;20443;-81
2022/06/26 02:47:23;;;;;;;8.18;5.78;;;;;;;18.04;100.00;100663.63;5034735;28;20431;-81
2022/06/26 02:49:57;;;;;;;9.27;6.18;;;;;;;18.03;100.00;100662.81;5032691;28;20431;-80
2022/06/26 02:52:30;;;;;;;8.75;6.30;;;;;;;18.06;100.00;100677.88;5039816;28;20749;-81
2022/06/26 02:55:06;;;;;;;8.02;6.10;;;;;;;18.07;100.00;100668.47;5027819;28;20423;-81
2022/06/26 02:57:38;;;;;;;8.70;6.15;;;;;;;18.07;100.00;100671.22;5029603;28;20438;-81
2022/06/26 03:00:13;;;;;;;7.90;6.07;;;;;;;18.13;100.00;100667.97;5027838;28;20437;-81
2022/06/26 03:02:48;;;;;;;8.30;5.80;;;;;;;18.14;100.00;100672.31;5037671;28;20424;-81
2022/06/26 03:05:22;;;;;;;8.70;6.32;;;;;;;18.16;100.00;100672.81;5027685;28;20436;-80
2022/06/26 03:07:56;;;;;;;8.93;6.13;;;;;;;18.19;100.00;100671.34;5032631;28;20434;-81
2022/06/26 03:10:30;;;;;;;9.07;6.10;;;;;;;18.19;100.00;100668.56;5030388;28;20441;-81
2022/06/26 03:13:02;;;;;;;9.82;6.40;;;;;;;18.17;100.00;100676.34;5029414;28;20422;-80
2022/06/26 03:15:35;;;;;;;8.77;6.40;;;;;;;18.15;100.00;100668.44;5021333;28;20425;-81
2022/06/26 03:18:09;;;;;;;8.55;6.63;;;;;;;18.17;100.00;100674.44;5020161;28;20895;-83
2022/06/26 03:20:40;;;;;;;8.43;6.30;;;;;;;18.23;100.00;100683.31;5024009;28;20423;-81
2022/06/26 03:23:13;;;;;;;9.88;6.70;;;;;;;18.24;100.00;100673.88;5025971;28;20427;-81
2022/06/26 03:25:42;;;;;;;9.20;6.70;;;;;;;18.28;100.00;100674.03;5026969;28;20451;-82
2022/06/26 03:28:12;;;;;;;8.73;6.55;;;;;;;18.26;100.00;100668.84;5029050;28;20427;-80
2022/06/26 03:30:49;;;;;;;10.52;6.97;;;;;;;18.26;100.00;100668.84;5027993;28;20428;-81
2022/06/26 03:33:22;;;;;;;8.82;6.50;;;;;;;18.31;100.00;100676.13;5028226;28;20443;-81
2022/06/26 03:35:58;;;;;;;10.52;6.65;;;;;;;18.30;100.00;100672.56;5028063;28;20420;-81
2022/06/26 03:38:26;;;;;;;9.10;6.70;;;;;;;18.35;100.00;100671.56;5033550;28;20799;-82
2022/06/26 03:40:56;;;;;;;9.05;6.72;;;;;;;18.37;100.00;100669.28;5028769;28;20469;-81
2022/06/26 03:43:29;;;;;;;9.63;6.70;;;;;;;18.33;100.00;100671.09;5034738;28;20429;-80
2022/06/26 03:46:02;;;;;;;9.30;6.78;;;;;;;18.35;100.00;100674.31;5032762;28;20438;-81
2022/06/26 03:48:35;;;;;;;9.13;6.80;;;;;;;18.33;100.00;100662.84;5026831;28;20429;-80
2022/06/26 03:51:09;;;;;;;9.90;6.80;;;;;;;18.43;100.00;100678.16;5031730;28;20899;-81
2022/06/26 03:53:37;;;;;;;9.27;6.78;;;;;;;18.40;100.00;100674.13;5034606;28;20433;-81
2022/06/26 03:56:07;;;;;;;8.75;6.85;;;;;;;18.40;100.00;100690.66;5035271;28;20411;-80
2022/06/26 03:58:40;;;;;;;9.30;6.80;;;;;;;18.36;100.00;100682.25;5030265;28;20438;-81
2022/06/26 04:01:17;;;;;;;8.65;6.78;;;;;;;18.41;100.00;100685.94;5029899;28;20741;-81
2022/06/26 04:03:50;;;;;;;8.50;6.90;;;;;;;18.38;100.00;100692.13;5027153;28;20439;-82
2022/06/26 04:06:18;;;;;;;9.88;7.22;;;;;;;18.28;100.00;100702.38;5029222;28;20426;-81
2022/06/26 04:08:52;;;;;;;9.10;7.17;;;;;;;18.32;100.00;100708.84;5029711;28;20523;-82
2022/06/26 04:11:21;;;;;;;9.57;7.13;;;;;;;18.33;100.00;100702.19;5032814;28;20434;-81
2022/06/26 04:14:05;;;;;;;9.50;7.37;;;;;;;18.25;100.00;100683.75;5025722;28;20440;-82
2022/06/26 04:16:38;;;;;;;11.77;8.00;;;;;;;18.36;100.00;100703.47;5038728;28;21244;-81
2022/06/26 04:19:11;;;;;;;9.32;7.55;;;;;;;18.37;100.00;100694.09;5027706;28;20449;-81
2022/06/26 04:21:45;;;;;;;9.13;7.28;;;;;;;18.35;100.00;100694.44;5034661;28;21043;-81
2022/06/26 04:24:18;;;;;;;9.63;7.50;;;;;;;18.34;100.00;100692.81;5026080;28;20441;-82
2022/06/26 04:26:48;;;;;;;10.32;7.93;;;;;;;18.34;100.00;100684.53;5032490;28;20430;-81
2022/06/26 04:29:22;;;;;;;10.35;7.55;;;;;;;18.34;100.00;100687.28;5025358;28;20783;-81
2022/06/26 04:31:50;;;;;;;11.60;7.88;;;;;;;18.32;100.00;100678.53;5028997;28;20437;-81
2022/06/26 04:34:26;;;;;;;9.48;7.40;;;;;;;18.37;100.00;100685.81;5026504;28;20921;-82
2022/06/26 04:36:59;;;;;;;10.35;7.70;;;;;;;18.35;100.00;100683.41;5024716;28;20411;-81
2022/06/26 04:39:32;;;;;;;10.35;7.97;;;;;;;18.35;100.00;100682.56;5042007;28;20421;-80
2022/06/26 04:42:06;;;;;;;10.23;7.75;;;;;;;18.44;100.00;100694.38;5021477;28;20951;-81
2022/06/26 04:44:40;;;;;;;10.77;8.05;;;;;;;18.47;100.00;100682.66;5031297;28;20428;-81
2022/06/26 04:47:13;;;;;;;8.80;7.18;;;;;;;18.52;100.00;100688.00;5030251;28;21100;-84
2022/06/26 04:49:56;;;;;;;8.57;7.35;;;;;;;18.57;100.00;100684.22;5028557;28;20432;-81
2022/06/26 04:52:30;;;;;;;9.25;7.50;;;;;;;18.61;100.00;100687.13;5029384;28;20839;-82
2022/06/26 04:54:59;;;;;;;8.90;7.28;;;;;;;18.64;100.00;100686.47;5029189;28;20775;-82
2022/06/26 04:57:38;;;;;;;9.20;7.35;;;;;;;18.76;100.00;100692.06;5030155;28;20745;-82
2022/06/26 05:00:14;;;;;;;9.60;7.32;;;;;;;18.78;100.00;100689.78;5031113;28;20449;-81
2022/06/26 05:03:01;;;;;;;9.53;7.50;;;;;;;18.88;100.00;100690.53;5031389;28;20415;-82
2022/06/26 05:05:52;;;;;;;11.63;7.53;;;;;;;18.96;100.00;100693.25;5029243;28;20614;-81
2022/06/26 05:08:44;;;;;;;10.10;7.80;;;;;;;19.42;100.00;100690.56;5028314;28;20431;-82
2022/06/26 05:11:19;;;;;;;10.00;7.70;;;;;;;20.01;100.00;100685.88;5028739;28;20427;-82
2022/06/26 05:13:55;;;;;;;10.18;7.70;;;;;;;20.98;100.00;100686.16;5028196;28;21011;-82
2022/06/26 05:16:47;;;;;;;9.18;7.57;;;;;;;22.72;100.00;100683.88;5035848;28;20775;-82
2022/06/26 05:19:26;;;;;;;10.85;7.70;;;;;;;23.34;100.00;100679.59;5038409;28;20418;-82
2022/06/26 05:22:02;;;;;;;10.07;8.27;;;;;;;23.46;100.00;100673.88;5033594;28;20422;-83
2022/06/26 05:24:39;;;;;;;9.93;8.20;;;;;;;24.69;100.00;100664.78;5034470;28;20430;-83
2022/06/26 05:27:12;;;;;;;11.67;8.40;;;;;;;25.37;100.00;100664.81;5023102;28;20423;-83
2022/06/26 05:29:42;;;;;;;11.07;8.88;;;;;;;25.73;100.00;100668.75;5024799;28;20418;-83
2022/06/26 05:32:15;;;;;;;10.90;8.38;;;;;;;26.71;100.00;100663.91;5024404;28;20434;-83
2022/06/26 05:34:44;;;;;;;9.95;8.50;;;;;;;27.22;100.00;100660.13;5027356;28;20926;-84
2022/06/26 05:37:14;;;;;;;10.50;8.10;;;;;;;27.29;100.00;100654.53;5030953;28;20439;-84
2022/06/26 05:39:42;;;;;;;12.23;8.77;;;;;;;26.34;100.00;100673.25;5034908;28;20406;-84
2022/06/26 05:42:19;;;;;;;10.02;8.50;;;;;;;24.51;100.00;100667.28;5034037;28;20483;-84
2022/06/26 05:44:50;;;;;;;10.80;8.90;;;;;;;23.40;100.00;100687.25;5037722;28;20419;-83
2022/06/26 05:47:21;;;;;;;12.10;9.13;;;;;;;22.33;100.00;100686.53;5029707;28;20450;-83
2022/06/26 05:50:07;;;;;;;11.25;9.10;;;;;;;22.15;100.00;100686.13;5026947;28;20918;-83
2022/06/26 05:52:51;;;;;;;11.63;9.10;;;;;;;21.92;100.00;100692.28;5027000;28;20424;-83
2022/06/26 05:55:53;;;;;;;10.85;8.98;;;;;;;21.93;100.00;100693.09;5026470;28;20422;-84
2022/06/26 05:58:50;;;;;;;10.60;8.45;;;;;;;21.96;100.00;100692.38;5025465;28;20429;-83
2022/06/26 06:01:46;;;;;;;10.95;9.02;;;;;;;21.92;100.00;100691.47;5020866;28;20411;-84
2022/06/26 06:04:22;;;;;;;10.10;8.60;;;;;;;21.77;100.00;100693.06;5027175;28;20425;-84
2022/06/26 06:06:58;;;;;;;10.85;9.10;;;;;;;21.71;100.00;100694.50;5029921;28;20427;-86
2022/06/26 06:09:27;;;;;;;10.70;8.82;;;;;;;21.60;100.00;100693.41;5027594;28;20434;-84
2022/06/26 06:11:55;;;;;;;11.52;8.63;;;;;;;21.12;100.00;100683.00;5034208;28;20427;-83
2022/06/26 06:14:23;;;;;;;13.40;8.52;;;;;;;21.20;100.00;100703.38;5045705;28;20805;-84
2022/06/26 06:17:35;;;;;;;11.20;8.75;;;;;;;21.23;100.00;100699.91;5031043;28;20450;-83
2022/06/26 06:19:46;;;;;;;10.67;8.30;;;;;;;21.17;100.00;100693.81;5023547;28;20427;-84
2022/06/26 06:22:23;;;;;;;10.88;8.45;;;;;;;21.14;100.00;100702.78;5033178;28;20807;-85
2022/06/26 06:24:56;;;;;;;12.70;8.63;;;;;;;21.06;100.00;100715.63;5026192;28;20535;-82
2022/06/26 06:27:25;;;;;;;10.73;8.80;;;;;;;20.83;100.00;100701.50;5032489;28;20434;-82
2022/06/26 06:29:55;;;;;;;10.77;8.65;;;;;;;20.93;100.00;100710.50;5030314;28;20427;-81
2022/06/26 06:32:25;;;;;;;9.65;8.05;;;;;;;20.90;100.00;100712.78;5033079;28;20457;-84
2022/06/26 06:34:54;;;;;;;10.98;8.45;;;;;;;20.85;100.00;100717.75;5031248;28;20435;-85
2022/06/26 06:37:29;;;;;;;12.93;8.40;;;;;;;20.93;100.00;100724.31;5030272;28;20430;-85
2022/06/26 06:39:57;;;;;;;10.18;8.30;;;;;;;20.98;100.00;100730.41;5029098;28;20887;-85
2022/06/26 06:42:25;;;;;;;10.55;8.10;;;;;;;21.05;100.00;100716.78;5044678;28;20427;-84
2022/06/26 06:45:10;;;;;;;9.63;7.90;;;;;;;21.16;100.00;100719.06;5036407;28;21242;-85
2022/06/26 06:47:58;;;;;;;9.95;8.13;;;;;;;21.27;100.00;100717.41;5029240;28;20406;-85
2022/06/26 06:50:31;;;;;;;9.65;7.72;;;;;;;21.46;100.00;100718.72;5040870;28;20438;-87
2022/06/26 06:53:05;;;;;;;10.55;8.10;;;;;;;21.45;100.00;100715.16;5030796;28;20415;-87
2022/06/26 06:55:39;;;;;;;9.45;7.68;;;;;;;21.66;100.00;100719.69;5036080;28;20427;-86
2022/06/26 06:58:12;;;;;;;9.10;7.30;;;;;;;21.71;100.00;100708.38;5031047;28;20907;-88
2022/06/26 07:00:41;;;;;;;8.93;7.13;;;;;;;21.85;100.00;100719.00;5031696;28;20422;-86
2022/06/26 07:03:15;;;;;;;9.93;7.80;;;;;;;21.92;100.00;100719.19;5029782;28;20432;-87
2022/06/26 07:05:44;;;;;;;11.32;7.55;;;;;;;21.89;100.00;100720.69;5031470;28;20423;-87
2022/06/26 07:08:17;;;;;;;8.53;6.63;;;;;;;21.96;100.00;100719.25;5037758;28;20422;-86
2022/06/26 07:10:50;;;;;;;8.32;6.72;;;;;;;21.98;100.00;100722.50;5031561;28;20438;-89
2022/06/26 07:13:23;;;;;;;8.90;6.88;;;;;;;21.99;100.00;100726.88;5023725;28;20418;-87
2022/06/26 07:15:57;;;;;;;9.27;6.88;;;;;;;22.11;100.00;100729.56;5039755;28;20434;-88
2022/06/26 07:18:28;;;;;;;7.40;6.10;;;;;;;22.16;100.00;100726.50;5031437;28;20419;-88
2022/06/26 07:21:01;;;;;;;9.13;6.72;;;;;;;22.23;100.00;100723.94;5036733;28;20419;-85
2022/06/26 07:23:30;;;;;;;7.97;6.32;;;;;;;22.38;100.00;100722.31;5032477;28;20421;-87
2022/06/26 07:26:06;;;;;;;8.13;6.60;;;;;;;22.53;100.00;100726.25;5034289;28;20938;-84
2022/06/26 07:28:39;;;;;;;8.55;6.05;;;;;;;22.61;100.00;100730.00;5027464;28;20729;-84
2022/06/26 07:31:08;;;;;;;9.30;6.55;;;;;;;22.62;100.00;100726.06;5028718;28;20427;-87
2022/06/26 07:36:34;;;;;;;8.55;6.03;;;;;;;22.93;100.00;100727.13;5012878;28;20424;-84
2022/06/26 07:39:03;;;;;;;7.70;6.20;;;;;;;22.90;100.00;100716.75;5023286;28;20494;-86
2022/06/26 07:41:37;;;;;;;8.40;6.43;;;;;;;22.96;100.00;100714.50;5023013;28;20430;-86
2022/06/26 07:44:11;;;;;;;10.70;6.00;;;;;;;23.07;100.00;100727.41;5033184;28;20418;-86
2022/06/26 07:46:45;;;;;;;9.20;5.60;;;;;;;23.11;100.00;100727.50;5025755;28;20950;-87
2022/06/26 07:49:24;;;;;;;7.68;5.88;;;;;;;23.16;100.00;100732.81;5025619;28;20434;-86
2022/06/26 07:52:01;;;;;;;7.10;5.57;;;;;;;23.24;100.00;100733.75;5030164;28;20426;-86
2022/06/26 07:54:29;;;;;;;7.97;5.65;;;;;;;23.33;100.00;100728.78;5027832;28;20431;-87
2022/06/26 07:56:58;;;;;;;7.65;5.30;;;;;;;23.53;100.00;100735.13;5023868;28;20435;-85
2022/06/26 07:59:33;;;;;;;7.43;5.53;;;;;;;23.58;100.00;100731.25;5030020;28;20425;-86
2022/06/26 08:02:06;;;;;;;7.77;5.63;;;;;;;23.44;100.00;100737.34;5024424;28;21450;-84
2022/06/26 08:04:35;;;;;;;7.55;5.60;;;;;;;23.38;100.00;100736.00;5023480;28;20473;-86
2022/06/26 08:07:09;;;;;;;6.38;4.85;;;;;;;23.61;100.00;100741.63;5026874;28;20422;-88
2022/06/26 08:09:42;;;;;;;7.13;4.72;;;;;;;23.69;100.00;100734.22;5031800;28;20425;-86
2022/06/26 08:12:16;;;;;;;7.32;5.15;;;;;;;23.67;100.00;100742.94;5018075;28;20434;-89
2022/06/26 08:14:44;;;;;;;7.15;5.05;;;;;;;23.75;100.00;100750.25;5024030;28;20435;-88
2022/06/26 08:17:17;;;;;;;7.28;4.82;;;;;;;23.98;100.00;100740.34;5024586;28;20427;-86
2022/06/26 08:19:48;;;;;;;7.72;4.80;;;;;;;24.10;100.00;100740.94;5030467;28;20423;-86
2022/06/26 08:22:21;;;;;;;6.43;4.33;;;;;;;24.30;100.00;100740.06;5030668;28;20496;-89
2022/06/26 08:24:50;;;;;;;6.03;4.72;;;;;;;24.29;100.00;100733.69;5031337;28;20439;-90
2022/06/26 08:27:24;;;;;;;6.50;4.40;;;;;;;24.61;100.00;100744.56;5009670;28;20431;-90
2022/06/26 08:29:58;;;;;;;5.40;3.63;;;;;;;24.82;100.00;100757.16;5012436;28;20437;-88
2022/06/26 08:32:26;;;;;;;5.93;4.05;;;;;;;24.88;100.00;100750.91;5013582;28;20876;-88
2022/06/26 08:34:56;;;;;;;5.50;3.80;;;;;;;24.79;100.00;100720.56;5017467;28;20442;-88
2022/06/26 08:37:30;;;;;;;5.82;3.60;;;;;;;25.10;100.00;100752.00;5019603;28;20427;-88
2022/06/26 08:40:04;;;;;;;6.88;3.63;;;;;;;25.15;100.00;100750.88;5018039;28;20796;-90
2022/06/26 08:42:33;;;;;;;5.10;3.50;;;;;;;25.36;100.00;100757.94;5010901;28;20434;-88
2022/06/26 08:45:01;;;;;;;4.07;3.00;;;;;;;25.38;100.00;100748.00;5012520;28;20457;-89
2022/06/26 08:47:35;;;;;;;4.78;3.17;;;;;;;25.48;100.00;100751.28;5018871;28;20418;-86
2022/06/26 08:50:05;;;;;;;4.88;3.03;;;;;;;25.46;100.00;100735.75;5024774;28;20797;-88
2022/06/26 08:52:34;;;;;;;4.78;2.85;;;;;;;25.68;100.00;100751.91;5019992;28;20907;-87
2022/06/26 08:55:09;;;;;;;5.07;3.20;;;;;;;25.84;100.00;100744.13;5030724;28;20427;-87
2022/06/26 08:57:37;;;;;;;4.57;2.80;;;;;;;25.81;100.00;100725.34;5019243;28;20526;-88
2022/06/26 09:00:13;;;;;;;3.90;2.58;;;;;;;26.04;100.00;100747.50;5023144;28;20435;-87
2022/06/26 09:02:42;;;;;;;3.05;2.35;;;;;;;26.07;100.00;100735.56;5024102;28;20426;-88
2022/06/26 09:05:12;;;;;;;3.15;2.20;;;;;;;26.18;100.00;100749.63;5029497;28;20414;-86
2022/06/26 09:07:52;;;;;;;3.13;1.90;;;;;;;26.39;100.00;100746.22;5025329;28;20421;-87
2022/06/26 09:10:23;;;;;;;2.87;2.00;;;;;;;26.45;100.00;100752.25;5036873;28;20903;-85
2022/06/26 09:12:59;;;;;;;3.23;1.90;;;;;;;26.60;100.00;100750.34;5021508;28;20429;-88
2022/06/26 09:15:32;;;;;;;4.20;2.00;;;;;;;26.76;98.55;100753.66;5031417;28;20427;-85
2022/06/26 09:18:07;;;;;;;2.50;1.92;;;;;;;26.82;100.00;100756.91;5026805;28;20422;-87
2022/06/26 09:20:53;;;;;;;3.10;1.80;;;;;;;26.85;100.00;100735.75;5016951;28;20419;-86
2022/06/26 09:23:26;;;;;;;2.58;1.80;;;;;;;27.05;100.00;100755.81;5045836;28;20440;-85
2022/06/26 09:26:00;;;;;;;3.03;2.00;;;;;;;26.92;93.53;100750.56;5038352;28;20410;-85
2022/06/26 09:28:34;;;;;;;2.85;1.90;;;;;;;26.94;100.00;100764.13;5029719;28;20535;-87
2022/06/26 09:31:07;;;;;;;2.60;1.80;;;;;;;26.81;100.00;100764.47;5014734;28;20439;-86
2022/06/26 09:33:41;;;;;;;5.18;1.80;;;;;;;26.48;100.00;100762.63;5019496;28;20437;-86
2022/06/26 09:36:16;;;;;;;2.60;1.80;;;;;;;26.86;100.00;100756.91;5027749;28;20423;-85
2022/06/26 09:38:50;;;;;;;2.58;1.90;;;;;;;26.83;100.00;100755.69;5040329;28;20920;-86
2022/06/26 09:41:30;;;;;;;4.20;2.30;;;;;;;27.03;100.00;100769.38;5039030;28;20435;-85
2022/06/26 09:43:59;;;;;;;3.28;2.00;;;;;;;27.30;89.91;100759.53;5013886;28;20425;-88
2022/06/26 09:46:33;;;;;;;4.13;2.00;;;;;;;27.35;77.89;100746.38;5015495;28;20441;-88
2022/06/26 09:49:02;;;;;;;4.13;2.10;;;;;;;27.39;95.81;100742.41;5012906;28;20427;-88
2022/06/26 09:51:31;;;;;;;4.00;2.08;;;;;;;27.63;84.02;100760.47;5009490;28;20454;-88
2022/06/26 09:54:00;;;;;;;3.17;2.10;;;;;;;27.80;90.83;100761.69;5014826;28;20423;-90
2022/06/26 09:56:34;;;;;;;3.25;2.25;;;;;;;27.77;88.02;100748.50;5014050;28;20446;-90
2022/06/26 09:59:08;;;;;;;4.93;2.40;;;;;;;27.83;88.17;100760.88;5013849;28;20431;-88
2022/06/26 10:07:20;;;;;;;2.70;1.80;;;;;;;28.00;81.93;100750.94;5033495;28;20444;-89
2022/06/26 10:09:49;;;;;;;2.63;1.60;;;;;;;28.24;86.18;100748.56;5037556;28;20430;-87
2022/06/26 10:12:18;;;;;;;2.38;1.60;;;;;;;28.28;75.64;100749.38;5055730;28;21021;-87
2022/06/26 10:14:50;;;;;;;3.08;1.70;;;;;;;27.97;83.96;100771.28;5026213;28;20860;-85
2022/06/26 10:17:39;;;;;;;2.42;1.70;;;;;;;27.56;72.15;100759.63;5031052;28;20795;-88
2022/06/26 10:20:09;;;;;;;2.40;1.90;;;;;;;27.78;71.41;100764.06;5033744;28;20921;-87
2022/06/26 10:22:41;;;;;;;2.75;1.95;;;;;;;28.05;77.92;100769.34;5035808;28;20427;-88
2022/06/26 10:25:23;;;;;;;2.80;1.80;;;;;;;28.17;75.26;100749.38;5032340;28;20434;-87
2022/06/26 10:28:00;;;;;;;2.75;1.70;;;;;;;28.55;72.67;100765.72;5030341;28;20415;-86
2022/06/26 10:30:33;;;;;;;2.20;1.83;;;;;;;28.33;62.90;100767.75;5027010;28;20419;-86
2022/06/26 10:33:08;;;;;;;2.90;1.80;;;;;;;27.85;60.31;100740.13;5036411;28;20432;-87
2022/06/26 10:35:39;;;;;;;2.70;1.90;;;;;;;28.09;70.51;100758.13;5031182;28;20406;-85
2022/06/26 10:38:22;;;;;;;2.92;1.70;;;;;;;28.11;64.57;100778.94;5031683;28;20423;-84
2022/06/26 10:44:00;;;;;;;3.23;2.33;;;;;;;27.65;79.81;100779.63;5032550;28;20427;-85
2022/06/26 10:46:38;;;;;;;4.13;2.80;;;;;;;27.91;88.74;100783.25;5021358;28;21033;-86
2022/06/26 10:49:11;;;;;;;3.10;2.20;;;;;;;28.26;87.29;100776.94;5039382;28;20425;-87
2022/06/26 10:51:42;;;;;;;4.13;2.60;;;;;;;28.41;80.53;100760.13;5031565;28;20426;-88
2022/06/26 10:54:22;;;;;;;2.88;2.20;;;;;;;28.64;71.55;100780.16;5033408;28;20417;-86
2022/06/26 10:57:06;;;;;;;3.85;2.35;;;;;;;28.76;74.49;100781.72;5031180;28;20422;-89
2022/06/26 10:59:40;;;;;;;3.35;2.50;;;;;;;28.64;81.35;100754.13;5040579;28;20414;-87
2022/06/26 11:02:15;;;;;;;3.55;2.47;;;;;;;28.12;82.69;100774.16;5033775;28;20752;-88
2022/06/26 11:04:45;;;;;;;3.37;2.50;;;;;;;27.66;87.59;100761.63;5031412;28;20438;-89
2022/06/26 11:07:19;;;;;;;3.77;2.43;;;;;;;27.85;85.22;100766.09;5032704;28;20411;-88
2022/06/26 11:09:56;;;;;;;13.27;10.27;;;;;;;28.32;87.60;100772.56;5032031;28;20427;-88
2022/06/26 11:12:40;;;;;;;4.50;2.90;;;;;;;28.66;78.88;100771.34;5032655;28;20438;-86
2022/06/26 11:15:28;;;;;;;4.38;2.80;;;;;;;28.79;78.26;100763.31;5025823;28;20417;-89
2022/06/26 11:18:03;;;;;;;3.35;2.40;;;;;;;28.60;91.22;100726.13;5030913;28;20438;-86
2022/06/26 11:20:49;;;;;;;4.20;2.50;;;;;;;28.90;72.88;100746.50;5022154;28;20438;-87
2022/06/26 11:23:24;;;;;;;3.33;2.20;;;;;;;28.25;75.36;100758.53;5031343;28;20776;-86
2022/06/26 11:26:01;;;;;;;2.88;2.20;;;;;;;28.06;86.39;100756.94;5021338;28;20484;-89
2022/06/26 11:28:30;;;;;;;3.00;2.10;;;;;;;28.20;72.68;100767.38;5009605;28;20449;-89
2022/06/26 11:31:06;;;;;;;2.90;2.00;;;;;;;27.97;81.54;100762.91;5017146;28;20795;-87
2022/06/26 11:33:40;;;;;;;2.72;1.83;;;;;;;27.76;87.49;100777.66;5016824;28;20442;-89
2022/06/26 11:36:16;;;;;;;3.42;2.20;;;;;;;28.10;82.73;100768.94;5018432;28;21811;-91
2022/06/26 11:38:49;;;;;;;3.85;2.30;;;;;;;28.70;66.60;100760.13;5011909;28;20442;-88
2022/06/26 11:41:25;;;;;;;2.70;1.90;;;;;;;29.15;62.51;100760.41;5016712;28;20434;-92
2022/06/26 11:44:00;;;;;;;3.15;1.95;;;;;;;29.41;64.06;100763.94;5010956;28;21218;-88
2022/06/26 11:46:33;;;;;;;2.40;1.70;;;;;;;29.38;60.29;100756.34;5013220;28;20811;-90
2022/06/26 11:49:10;;;;;;;3.17;1.95;;;;;;;29.49;72.19;100752.25;5016397;28;20427;-90
2022/06/26 11:51:43;;;;;;;3.20;2.10;;;;;;;29.79;71.38;100753.69;5016512;28;20430;-88
2022/06/26 11:54:24;;;;;;;3.55;1.90;;;;;;;29.83;65.30;100753.66;5021723;28;20436;-86
2022/06/26 11:57:05;;;;;;;2.70;1.80;;;;;;;29.45;55.68;100756.31;5003045;28;20442;-90
2022/06/26 11:59:41;;;;;;;3.30;1.92;;;;;;;29.67;65.29;100763.38;5008613;28;20435;-89
2022/06/26 12:02:22;;;;;;;3.65;1.90;;;;;;;29.39;71.01;100755.13;5010362;28;20433;-89